sensor_id;sensor_type;location;lat;lon;timestamp;P1;durP1;ratioP1;P2;durP2;ratioP2
22064;SDS011;11197;53.110;8.468;2024-03-23T00:54:01;24.08;;;3.83;;
22064;SDS011;11197;53.110;8.468;2024-03-23T00:56:28;19.42;;;3.63;;
22064;SDS011;11197;53.110;8.468;2024-03-23T00:58:54;25.98;;;3.85;;
22064;SDS011;11197;53.110;8.468;2024-03-23T01:01:20;20.45;;;3.95;;
22064;SDS011;11197;53.110;8.468;2024-03-23T01:03:46;16.63;;;3.30;;
22064;SDS011;11197;53.110;8.468;2024-03-23T01:06:12;18.35;;;3.65;;
22064;SDS011;11197;53.110;8.468;2024-03-23T01:08:37;18.95;;;3.67;;
22064;SDS011;11197;53.110;8.468;2024-03-23T01:11:03;19.85;;;4.00;;
22064;SDS011;11197;53.110;8.468;2024-03-23T01:13:29;19.98;;;3.67;;
22064;SDS011;11197;53.110;8.468;2024-03-23T01:15:55;27.50;;;4.20;;
22064;SDS011;11197;53.110;8.468;2024-03-23T01:18:22;20.25;;;4.35;;
22064;SDS011;11197;53.110;8.468;2024-03-23T01:20:48;24.35;;;4.07;;
22064;SDS011;11197;53.110;8.468;2024-03-23T01:23:14;22.23;;;3.70;;
22064;SDS011;11197;53.110;8.468;2024-03-23T01:25:40;20.50;;;3.75;;
22064;SDS011;11197;53.110;8.468;2024-03-23T01:28:06;18.40;;;3.58;;
22064;SDS011;11197;53.110;8.468;2024-03-23T01:30:33;15.82;;;3.10;;
22064;SDS011;11197;53.110;8.468;2024-03-23T01:32:59;17.85;;;3.78;;
22064;SDS011;11197;53.110;8.468;2024-03-23T01:35:25;17.25;;;3.10;;
22064;SDS011;11197;53.110;8.468;2024-03-23T01:37:52;21.75;;;4.65;;
22064;SDS011;11197;53.110;8.468;2024-03-23T01:40:18;32.35;;;9.00;;
22064;SDS011;11197;53.110;8.468;2024-03-23T01:43:02;36.92;;;9.63;;
22064;SDS011;11197;53.110;8.468;2024-03-23T01:45:30;44.28;;;13.40;;
22064;SDS011;11197;53.110;8.468;2024-03-23T01:47:56;40.38;;;13.13;;
22064;SDS011;11197;53.110;8.468;2024-03-23T01:50:22;35.00;;;10.93;;
22064;SDS011;11197;53.110;8.468;2024-03-23T01:52:49;39.15;;;11.73;;
22064;SDS011;11197;53.110;8.468;2024-03-23T01:55:15;36.85;;;12.43;;
22064;SDS011;11197;53.110;8.468;2024-03-23T01:57:41;32.45;;;8.52;;
22064;SDS011;11197;53.110;8.468;2024-03-23T02:00:07;33.22;;;8.13;;
22064;SDS011;11197;53.110;8.468;2024-03-23T02:02:43;35.80;;;10.07;;
22064;SDS011;11197;53.110;8.468;2024-03-23T02:05:10;29.02;;;9.27;;
22064;SDS011;11197;53.110;8.468;2024-03-23T02:07:37;25.00;;;7.22;;
22064;SDS011;11197;53.110;8.468;2024-03-23T02:10:05;24.17;;;5.80;;
22064;SDS011;11197;53.110;8.468;2024-03-23T02:12:31;23.60;;;5.28;;
22064;SDS011;11197;53.110;8.468;2024-03-23T02:14:57;23.20;;;5.30;;
22064;SDS011;11197;53.110;8.468;2024-03-23T02:17:23;22.58;;;4.82;;
22064;SDS011;11197;53.110;8.468;2024-03-23T02:19:48;20.88;;;4.60;;
22064;SDS011;11197;53.110;8.468;2024-03-23T02:22:15;25.02;;;4.43;;
22064;SDS011;11197;53.110;8.468;2024-03-23T02:24:41;20.33;;;4.53;;
22064;SDS011;11197;53.110;8.468;2024-03-23T02:27:07;22.92;;;4.68;;
22064;SDS011;11197;53.110;8.468;2024-03-23T02:29:33;17.92;;;4.38;;
22064;SDS011;11197;53.110;8.468;2024-03-23T02:31:59;22.13;;;3.92;;
22064;SDS011;11197;53.110;8.468;2024-03-23T02:34:25;20.60;;;4.43;;
22064;SDS011;11197;53.110;8.468;2024-03-23T02:36:50;20.67;;;4.15;;
22064;SDS011;11197;53.110;8.468;2024-03-23T02:39:16;23.27;;;4.25;;
22064;SDS011;11197;53.110;8.468;2024-03-23T02:41:42;19.05;;;4.05;;
22064;SDS011;11197;53.110;8.468;2024-03-23T02:44:08;27.25;;;4.18;;
22064;SDS011;11197;53.110;8.468;2024-03-23T02:46:36;17.55;;;4.07;;
22064;SDS011;11197;53.110;8.468;2024-03-23T02:49:05;19.52;;;3.67;;
22064;SDS011;11197;53.110;8.468;2024-03-23T02:51:32;22.77;;;3.90;;
22064;SDS011;11197;53.110;8.468;2024-03-23T02:53:57;20.85;;;3.85;;
22064;SDS011;11197;53.110;8.468;2024-03-23T02:56:23;22.50;;;4.35;;
22064;SDS011;11197;53.110;8.468;2024-03-23T02:58:49;20.38;;;3.75;;
22064;SDS011;11197;53.110;8.468;2024-03-23T03:01:15;21.88;;;3.95;;
22064;SDS011;11197;53.110;8.468;2024-03-23T03:03:40;17.00;;;3.35;;
22064;SDS011;11197;53.110;8.468;2024-03-23T03:06:06;19.95;;;3.88;;
22064;SDS011;11197;53.110;8.468;2024-03-23T03:08:32;19.42;;;3.65;;
22064;SDS011;11197;53.110;8.468;2024-03-23T03:10:58;23.10;;;4.43;;
22064;SDS011;11197;53.110;8.468;2024-03-23T03:13:23;21.02;;;3.53;;
22064;SDS011;11197;53.110;8.468;2024-03-23T03:15:49;23.00;;;3.97;;
22064;SDS011;11197;53.110;8.468;2024-03-23T03:18:15;20.95;;;3.80;;
22064;SDS011;11197;53.110;8.468;2024-03-23T03:20:41;19.05;;;4.00;;
22064;SDS011;11197;53.110;8.468;2024-03-23T03:23:06;22.80;;;3.63;;
22064;SDS011;11197;53.110;8.468;2024-03-23T03:25:32;25.55;;;4.47;;
22064;SDS011;11197;53.110;8.468;2024-03-23T03:27:59;19.80;;;4.13;;
22064;SDS011;11197;53.110;8.468;2024-03-23T03:30:25;22.73;;;4.20;;
22064;SDS011;11197;53.110;8.468;2024-03-23T03:32:53;18.00;;;4.10;;
22064;SDS011;11197;53.110;8.468;2024-03-23T03:35:19;21.27;;;4.25;;
22064;SDS011;11197;53.110;8.468;2024-03-23T03:37:45;23.88;;;4.38;;
22064;SDS011;11197;53.110;8.468;2024-03-23T03:40:11;18.70;;;3.60;;
22064;SDS011;11197;53.110;8.468;2024-03-23T03:42:37;22.95;;;4.13;;
22064;SDS011;11197;53.110;8.468;2024-03-23T03:45:03;20.35;;;3.90;;
22064;SDS011;11197;53.110;8.468;2024-03-23T03:47:30;23.17;;;3.60;;
22064;SDS011;11197;53.110;8.468;2024-03-23T03:49:55;19.80;;;3.95;;
22064;SDS011;11197;53.110;8.468;2024-03-23T03:52:21;26.15;;;4.18;;
22064;SDS011;11197;53.110;8.468;2024-03-23T03:54:47;20.25;;;4.03;;
22064;SDS011;11197;53.110;8.468;2024-03-23T03:57:13;20.52;;;4.07;;
22064;SDS011;11197;53.110;8.468;2024-03-23T03:59:39;27.02;;;4.07;;
22064;SDS011;11197;53.110;8.468;2024-03-23T04:02:04;19.60;;;4.40;;
22064;SDS011;11197;53.110;8.468;2024-03-23T04:04:30;21.25;;;3.60;;
22064;SDS011;11197;53.110;8.468;2024-03-23T04:07:02;15.32;;;3.78;;
22064;SDS011;11197;53.110;8.468;2024-03-23T04:09:28;20.02;;;4.00;;
22064;SDS011;11197;53.110;8.468;2024-03-23T04:11:55;18.70;;;4.10;;
22064;SDS011;11197;53.110;8.468;2024-03-23T04:14:21;21.75;;;4.07;;
22064;SDS011;11197;53.110;8.468;2024-03-23T04:16:46;21.58;;;4.00;;
22064;SDS011;11197;53.110;8.468;2024-03-23T04:19:12;19.80;;;3.90;;
22064;SDS011;11197;53.110;8.468;2024-03-23T04:21:38;30.60;;;4.55;;
22064;SDS011;11197;53.110;8.468;2024-03-23T04:24:04;25.85;;;4.70;;
22064;SDS011;11197;53.110;8.468;2024-03-23T04:26:30;23.40;;;3.78;;
22064;SDS011;11197;53.110;8.468;2024-03-23T04:29:05;24.48;;;4.93;;
22064;SDS011;11197;53.110;8.468;2024-03-23T04:31:31;21.42;;;4.25;;
22064;SDS011;11197;53.110;8.468;2024-03-23T04:33:59;22.77;;;4.20;;
22064;SDS011;11197;53.110;8.468;2024-03-23T04:36:28;23.27;;;4.15;;
22064;SDS011;11197;53.110;8.468;2024-03-23T04:38:54;21.67;;;4.65;;
22064;SDS011;11197;53.110;8.468;2024-03-23T04:41:20;23.48;;;3.90;;
22064;SDS011;11197;53.110;8.468;2024-03-23T04:43:46;28.23;;;4.30;;
22064;SDS011;11197;53.110;8.468;2024-03-23T04:46:11;24.50;;;3.75;;
22064;SDS011;11197;53.110;8.468;2024-03-23T04:48:37;23.58;;;3.95;;
22064;SDS011;11197;53.110;8.468;2024-03-23T04:51:03;20.15;;;3.83;;
22064;SDS011;11197;53.110;8.468;2024-03-23T04:53:29;22.35;;;4.28;;
22064;SDS011;11197;53.110;8.468;2024-03-23T04:55:55;27.65;;;3.97;;
22064;SDS011;11197;53.110;8.468;2024-03-23T04:58:22;24.60;;;4.65;;
22064;SDS011;11197;53.110;8.468;2024-03-23T05:00:52;24.35;;;4.00;;
22064;SDS011;11197;53.110;8.468;2024-03-23T05:03:19;23.63;;;3.88;;
22064;SDS011;11197;53.110;8.468;2024-03-23T05:05:46;21.65;;;3.70;;
22064;SDS011;11197;53.110;8.468;2024-03-23T05:08:13;24.73;;;4.18;;
22064;SDS011;11197;53.110;8.468;2024-03-23T05:10:41;18.63;;;3.90;;
22064;SDS011;11197;53.110;8.468;2024-03-23T05:13:07;21.15;;;4.03;;
22064;SDS011;11197;53.110;8.468;2024-03-23T05:15:33;24.67;;;3.90;;
22064;SDS011;11197;53.110;8.468;2024-03-23T05:17:59;16.90;;;3.80;;
22064;SDS011;11197;53.110;8.468;2024-03-23T05:20:24;25.15;;;4.47;;
22064;SDS011;11197;53.110;8.468;2024-03-23T05:22:50;22.63;;;4.05;;
22064;SDS011;11197;53.110;8.468;2024-03-23T05:25:16;28.88;;;4.72;;
22064;SDS011;11197;53.110;8.468;2024-03-23T05:27:42;23.10;;;3.80;;
22064;SDS011;11197;53.110;8.468;2024-03-23T05:30:07;22.75;;;4.63;;
22064;SDS011;11197;53.110;8.468;2024-03-23T05:32:34;17.45;;;4.00;;
22064;SDS011;11197;53.110;8.468;2024-03-23T05:35:00;18.85;;;4.00;;
22064;SDS011;11197;53.110;8.468;2024-03-23T05:37:26;23.30;;;3.95;;
22064;SDS011;11197;53.110;8.468;2024-03-23T05:39:51;20.40;;;4.53;;
22064;SDS011;11197;53.110;8.468;2024-03-23T05:42:17;21.48;;;3.70;;
22064;SDS011;11197;53.110;8.468;2024-03-23T05:44:47;21.33;;;4.18;;
22064;SDS011;11197;53.110;8.468;2024-03-23T05:47:13;21.20;;;4.13;;
22064;SDS011;11197;53.110;8.468;2024-03-23T05:49:42;17.83;;;4.00;;
22064;SDS011;11197;53.110;8.468;2024-03-23T05:52:08;17.42;;;3.33;;
22064;SDS011;11197;53.110;8.468;2024-03-23T05:54:34;22.70;;;4.50;;
22064;SDS011;11197;53.110;8.468;2024-03-23T05:57:01;21.63;;;3.75;;
22064;SDS011;11197;53.110;8.468;2024-03-23T05:59:27;17.50;;;3.97;;
22064;SDS011;11197;53.110;8.468;2024-03-23T06:01:53;27.05;;;4.60;;
22064;SDS011;11197;53.110;8.468;2024-03-23T06:04:19;21.88;;;3.95;;
22064;SDS011;11197;53.110;8.468;2024-03-23T06:06:46;16.77;;;3.92;;
22064;SDS011;11197;53.110;8.468;2024-03-23T06:09:12;20.90;;;3.83;;
22064;SDS011;11197;53.110;8.468;2024-03-23T06:11:37;22.85;;;4.47;;
22064;SDS011;11197;53.110;8.468;2024-03-23T06:14:03;23.10;;;4.30;;
22064;SDS011;11197;53.110;8.468;2024-03-23T06:16:29;23.50;;;4.45;;
22064;SDS011;11197;53.110;8.468;2024-03-23T06:18:55;19.52;;;4.65;;
22064;SDS011;11197;53.110;8.468;2024-03-23T06:21:21;27.13;;;4.55;;
22064;SDS011;11197;53.110;8.468;2024-03-23T06:23:50;21.90;;;4.25;;
22064;SDS011;11197;53.110;8.468;2024-03-23T06:26:18;27.05;;;4.63;;
22064;SDS011;11197;53.110;8.468;2024-03-23T06:28:44;18.90;;;3.88;;
22064;SDS011;11197;53.110;8.468;2024-03-23T06:31:10;22.05;;;4.60;;
22064;SDS011;11197;53.110;8.468;2024-03-23T06:33:36;19.58;;;4.55;;
22064;SDS011;11197;53.110;8.468;2024-03-23T06:36:03;22.35;;;4.45;;
22064;SDS011;11197;53.110;8.468;2024-03-23T06:38:29;23.63;;;4.43;;
22064;SDS011;11197;53.110;8.468;2024-03-23T06:40:55;19.90;;;4.70;;
22064;SDS011;11197;53.110;8.468;2024-03-23T06:43:21;24.08;;;4.47;;
22064;SDS011;11197;53.110;8.468;2024-03-23T06:45:52;25.48;;;4.90;;
22064;SDS011;11197;53.110;8.468;2024-03-23T06:48:21;21.17;;;4.70;;
22064;SDS011;11197;53.110;8.468;2024-03-23T06:50:47;19.60;;;4.55;;
22064;SDS011;11197;53.110;8.468;2024-03-23T06:53:13;18.63;;;4.50;;
22064;SDS011;11197;53.110;8.468;2024-03-23T06:55:39;20.45;;;4.25;;
22064;SDS011;11197;53.110;8.468;2024-03-23T06:58:05;15.65;;;4.30;;
22064;SDS011;11197;53.110;8.468;2024-03-23T07:00:31;20.60;;;4.40;;
22064;SDS011;11197;53.110;8.468;2024-03-23T07:02:57;23.08;;;4.65;;
22064;SDS011;11197;53.110;8.468;2024-03-23T07:05:24;21.88;;;4.32;;
22064;SDS011;11197;53.110;8.468;2024-03-23T07:07:50;21.88;;;4.18;;
22064;SDS011;11197;53.110;8.468;2024-03-23T07:10:16;18.50;;;4.15;;
22064;SDS011;11197;53.110;8.468;2024-03-23T07:12:42;23.02;;;4.25;;
22064;SDS011;11197;53.110;8.468;2024-03-23T07:15:08;20.95;;;4.20;;
22064;SDS011;11197;53.110;8.468;2024-03-23T07:17:34;23.25;;;4.68;;
22064;SDS011;11197;53.110;8.468;2024-03-23T07:20:03;18.23;;;4.10;;
22064;SDS011;11197;53.110;8.468;2024-03-23T07:22:30;17.30;;;4.30;;
22064;SDS011;11197;53.110;8.468;2024-03-23T07:24:56;24.17;;;4.47;;
22064;SDS011;11197;53.110;8.468;2024-03-23T07:27:24;20.85;;;4.70;;
22064;SDS011;11197;53.110;8.468;2024-03-23T07:29:51;26.40;;;4.32;;
22064;SDS011;11197;53.110;8.468;2024-03-23T07:32:16;22.25;;;4.30;;
22064;SDS011;11197;53.110;8.468;2024-03-23T07:34:42;21.55;;;4.13;;
22064;SDS011;11197;53.110;8.468;2024-03-23T07:37:09;17.20;;;3.75;;
22064;SDS011;11197;53.110;8.468;2024-03-23T07:39:35;21.40;;;4.35;;
22064;SDS011;11197;53.110;8.468;2024-03-23T07:42:01;19.42;;;4.38;;
22064;SDS011;11197;53.110;8.468;2024-03-23T07:44:27;20.75;;;3.85;;
22064;SDS011;11197;53.110;8.468;2024-03-23T07:46:53;18.40;;;4.00;;
22064;SDS011;11197;53.110;8.468;2024-03-23T07:49:19;20.48;;;3.78;;
22064;SDS011;11197;53.110;8.468;2024-03-23T07:51:45;20.63;;;4.00;;
22064;SDS011;11197;53.110;8.468;2024-03-23T07:54:10;18.05;;;3.35;;
22064;SDS011;11197;53.110;8.468;2024-03-23T07:56:36;18.15;;;3.58;;
22064;SDS011;11197;53.110;8.468;2024-03-23T07:59:02;24.52;;;3.88;;
22064;SDS011;11197;53.110;8.468;2024-03-23T08:01:31;18.17;;;3.47;;
22064;SDS011;11197;53.110;8.468;2024-03-23T08:03:56;16.23;;;3.47;;
22064;SDS011;11197;53.110;8.468;2024-03-23T08:06:22;13.93;;;3.20;;
22064;SDS011;11197;53.110;8.468;2024-03-23T08:08:49;17.27;;;3.25;;
22064;SDS011;11197;53.110;8.468;2024-03-23T08:11:25;19.83;;;3.70;;
22064;SDS011;11197;53.110;8.468;2024-03-23T08:13:52;16.33;;;3.00;;
22064;SDS011;11197;53.110;8.468;2024-03-23T08:16:18;19.13;;;4.20;;
22064;SDS011;11197;53.110;8.468;2024-03-23T08:18:44;22.42;;;3.60;;
22064;SDS011;11197;53.110;8.468;2024-03-23T08:21:10;17.85;;;3.17;;
22064;SDS011;11197;53.110;8.468;2024-03-23T08:23:36;17.25;;;3.45;;
22064;SDS011;11197;53.110;8.468;2024-03-23T08:26:03;12.30;;;2.97;;
22064;SDS011;11197;53.110;8.468;2024-03-23T08:28:43;17.80;;;3.20;;
22064;SDS011;11197;53.110;8.468;2024-03-23T08:31:09;19.05;;;3.33;;
22064;SDS011;11197;53.110;8.468;2024-03-23T08:33:36;19.48;;;3.42;;
22064;SDS011;11197;53.110;8.468;2024-03-23T08:36:06;16.63;;;3.22;;
22064;SDS011;11197;53.110;8.468;2024-03-23T08:38:33;16.98;;;2.95;;
22064;SDS011;11197;53.110;8.468;2024-03-23T08:41:03;18.65;;;2.70;;
22064;SDS011;11197;53.110;8.468;2024-03-23T08:43:36;12.48;;;2.60;;
22064;SDS011;11197;53.110;8.468;2024-03-23T08:46:04;15.98;;;2.88;;
22064;SDS011;11197;53.110;8.468;2024-03-23T08:48:34;15.55;;;2.40;;
22064;SDS011;11197;53.110;8.468;2024-03-23T08:51:05;14.90;;;2.60;;
22064;SDS011;11197;53.110;8.468;2024-03-23T08:53:35;16.08;;;3.85;;
22064;SDS011;11197;53.110;8.468;2024-03-23T08:56:02;12.18;;;2.28;;
22064;SDS011;11197;53.110;8.468;2024-03-23T08:58:30;13.65;;;2.45;;
22064;SDS011;11197;53.110;8.468;2024-03-23T09:01:02;11.55;;;2.60;;
22064;SDS011;11197;53.110;8.468;2024-03-23T09:03:30;13.90;;;3.75;;
22064;SDS011;11197;53.110;8.468;2024-03-23T09:05:56;14.10;;;2.80;;
22064;SDS011;11197;53.110;8.468;2024-03-23T09:08:23;12.00;;;2.80;;
22064;SDS011;11197;53.110;8.468;2024-03-23T09:10:49;13.85;;;3.00;;
22064;SDS011;11197;53.110;8.468;2024-03-23T09:13:15;11.43;;;2.65;;
22064;SDS011;11197;53.110;8.468;2024-03-23T09:15:50;17.90;;;3.60;;
22064;SDS011;11197;53.110;8.468;2024-03-23T09:18:19;11.38;;;2.90;;
22064;SDS011;11197;53.110;8.468;2024-03-23T09:20:45;13.70;;;3.15;;
22064;SDS011;11197;53.110;8.468;2024-03-23T09:23:10;9.85;;;2.55;;
22064;SDS011;11197;53.110;8.468;2024-03-23T09:25:39;11.38;;;2.40;;
22064;SDS011;11197;53.110;8.468;2024-03-23T09:28:08;7.50;;;1.95;;
22064;SDS011;11197;53.110;8.468;2024-03-23T09:30:34;8.23;;;2.10;;
22064;SDS011;11197;53.110;8.468;2024-03-23T09:33:00;7.55;;;2.28;;
22064;SDS011;11197;53.110;8.468;2024-03-23T09:35:26;9.68;;;2.10;;
22064;SDS011;11197;53.110;8.468;2024-03-23T09:37:52;10.05;;;2.30;;
22064;SDS011;11197;53.110;8.468;2024-03-23T09:40:18;7.53;;;2.13;;
22064;SDS011;11197;53.110;8.468;2024-03-23T09:42:49;9.85;;;2.13;;
22064;SDS011;11197;53.110;8.468;2024-03-23T09:45:26;8.48;;;2.05;;
22064;SDS011;11197;53.110;8.468;2024-03-23T09:47:53;7.78;;;2.03;;
22064;SDS011;11197;53.110;8.468;2024-03-23T09:50:20;13.25;;;2.45;;
22064;SDS011;11197;53.110;8.468;2024-03-23T09:52:47;8.50;;;2.20;;
22064;SDS011;11197;53.110;8.468;2024-03-23T09:55:13;8.77;;;2.22;;
22064;SDS011;11197;53.110;8.468;2024-03-23T09:57:39;9.30;;;2.47;;
22064;SDS011;11197;53.110;8.468;2024-03-23T10:00:06;10.77;;;2.50;;
22064;SDS011;11197;53.110;8.468;2024-03-23T10:02:33;8.27;;;2.17;;
22064;SDS011;11197;53.110;8.468;2024-03-23T10:05:00;9.93;;;2.53;;
22064;SDS011;11197;53.110;8.468;2024-03-23T10:07:26;11.13;;;2.30;;
22064;SDS011;11197;53.110;8.468;2024-03-23T10:09:54;8.95;;;2.30;;
22064;SDS011;11197;53.110;8.468;2024-03-23T10:12:20;7.95;;;2.00;;
22064;SDS011;11197;53.110;8.468;2024-03-23T10:14:46;9.82;;;2.30;;
22064;SDS011;11197;53.110;8.468;2024-03-23T10:17:13;7.07;;;2.17;;
22064;SDS011;11197;53.110;8.468;2024-03-23T10:19:40;12.68;;;2.40;;
22064;SDS011;11197;53.110;8.468;2024-03-23T10:22:08;11.95;;;2.28;;
22064;SDS011;11197;53.110;8.468;2024-03-23T10:24:34;9.27;;;2.28;;
22064;SDS011;11197;53.110;8.468;2024-03-23T10:27:00;8.57;;;2.53;;
22064;SDS011;11197;53.110;8.468;2024-03-23T10:29:26;8.80;;;2.10;;
22064;SDS011;11197;53.110;8.468;2024-03-23T10:31:56;8.40;;;2.20;;
22064;SDS011;11197;53.110;8.468;2024-03-23T10:34:33;10.85;;;2.60;;
22064;SDS011;11197;53.110;8.468;2024-03-23T10:37:00;8.52;;;2.30;;
22064;SDS011;11197;53.110;8.468;2024-03-23T10:39:28;9.52;;;2.35;;
22064;SDS011;11197;53.110;8.468;2024-03-23T10:42:08;7.30;;;2.00;;
22064;SDS011;11197;53.110;8.468;2024-03-23T10:44:37;5.15;;;1.83;;
22064;SDS011;11197;53.110;8.468;2024-03-23T10:47:04;8.20;;;2.20;;
22064;SDS011;11197;53.110;8.468;2024-03-23T10:49:34;8.35;;;2.10;;
22064;SDS011;11197;53.110;8.468;2024-03-23T10:52:04;11.65;;;2.40;;
22064;SDS011;11197;53.110;8.468;2024-03-23T10:54:31;7.28;;;2.30;;
22064;SDS011;11197;53.110;8.468;2024-03-23T10:59:42;9.90;;;2.25;;
22064;SDS011;11197;53.110;8.468;2024-03-23T11:02:20;10.20;;;2.05;;
22064;SDS011;11197;53.110;8.468;2024-03-23T11:04:47;7.25;;;2.03;;
22064;SDS011;11197;53.110;8.468;2024-03-23T11:07:31;7.82;;;2.42;;
22064;SDS011;11197;53.110;8.468;2024-03-23T11:09:58;6.28;;;2.13;;
22064;SDS011;11197;53.110;8.468;2024-03-23T11:12:26;7.25;;;2.00;;
22064;SDS011;11197;53.110;8.468;2024-03-23T11:17:26;9.05;;;1.90;;
22064;SDS011;11197;53.110;8.468;2024-03-23T11:22:45;9.60;;;2.03;;
22064;SDS011;11197;53.110;8.468;2024-03-23T11:27:49;10.80;;;2.08;;
22064;SDS011;11197;53.110;8.468;2024-03-23T11:32:53;7.88;;;1.80;;
22064;SDS011;11197;53.110;8.468;2024-03-23T11:35:30;5.80;;;1.80;;
22064;SDS011;11197;53.110;8.468;2024-03-23T11:40:44;7.35;;;1.60;;
22064;SDS011;11197;53.110;8.468;2024-03-23T11:45:44;7.07;;;1.80;;
22064;SDS011;11197;53.110;8.468;2024-03-23T11:48:18;5.43;;;1.70;;
22064;SDS011;11197;53.110;8.468;2024-03-23T11:50:46;9.88;;;1.85;;
22064;SDS011;11197;53.110;8.468;2024-03-23T11:55:50;6.63;;;1.40;;
22064;SDS011;11197;53.110;8.468;2024-03-23T11:58:17;6.50;;;1.73;;
22064;SDS011;11197;53.110;8.468;2024-03-23T12:03:17;4.07;;;1.05;;
22064;SDS011;11197;53.110;8.468;2024-03-23T12:05:49;4.72;;;0.88;;
22064;SDS011;11197;53.110;8.468;2024-03-23T12:08:51;4.00;;;0.60;;
22064;SDS011;11197;53.110;8.468;2024-03-23T12:13:37;4.05;;;0.70;;
22064;SDS011;11197;53.110;8.468;2024-03-23T12:18:39;5.18;;;0.63;;
22064;SDS011;11197;53.110;8.468;2024-03-23T12:21:06;6.40;;;0.55;;
22064;SDS011;11197;53.110;8.468;2024-03-23T12:23:32;1.75;;;0.40;;
22064;SDS011;11197;53.110;8.468;2024-03-23T12:25:58;2.35;;;0.57;;
22064;SDS011;11197;53.110;8.468;2024-03-23T12:28:24;3.00;;;0.57;;
22064;SDS011;11197;53.110;8.468;2024-03-23T12:30:53;2.47;;;0.50;;
22064;SDS011;11197;53.110;8.468;2024-03-23T12:33:19;2.80;;;0.60;;
22064;SDS011;11197;53.110;8.468;2024-03-23T12:35:45;3.70;;;0.50;;
22064;SDS011;11197;53.110;8.468;2024-03-23T12:38:11;2.80;;;0.55;;
22064;SDS011;11197;53.110;8.468;2024-03-23T12:40:36;3.85;;;0.80;;
22064;SDS011;11197;53.110;8.468;2024-03-23T12:43:02;4.95;;;0.90;;
22064;SDS011;11197;53.110;8.468;2024-03-23T12:45:28;4.97;;;0.82;;
22064;SDS011;11197;53.110;8.468;2024-03-23T12:47:54;3.65;;;0.80;;
22064;SDS011;11197;53.110;8.468;2024-03-23T12:50:20;7.70;;;1.17;;
22064;SDS011;11197;53.110;8.468;2024-03-23T12:52:46;6.65;;;1.27;;
22064;SDS011;11197;53.110;8.468;2024-03-23T12:55:12;5.05;;;1.02;;
22064;SDS011;11197;53.110;8.468;2024-03-23T12:57:38;6.70;;;1.25;;
22064;SDS011;11197;53.110;8.468;2024-03-23T13:00:04;5.65;;;1.38;;
22064;SDS011;11197;53.110;8.468;2024-03-23T13:02:31;7.68;;;1.77;;
22064;SDS011;11197;53.110;8.468;2024-03-23T13:05:00;8.50;;;1.85;;
22064;SDS011;11197;53.110;8.468;2024-03-23T13:07:25;6.47;;;1.77;;
22064;SDS011;11197;53.110;8.468;2024-03-23T13:09:51;6.72;;;1.70;;
22064;SDS011;11197;53.110;8.468;2024-03-23T13:12:18;6.90;;;1.67;;
22064;SDS011;11197;53.110;8.468;2024-03-23T13:14:45;7.88;;;1.60;;
22064;SDS011;11197;53.110;8.468;2024-03-23T13:17:11;4.47;;;1.55;;
22064;SDS011;11197;53.110;8.468;2024-03-23T13:19:37;6.50;;;1.50;;
22064;SDS011;11197;53.110;8.468;2024-03-23T13:22:03;3.60;;;1.00;;
22064;SDS011;11197;53.110;8.468;2024-03-23T13:24:29;4.28;;;0.90;;
22064;SDS011;11197;53.110;8.468;2024-03-23T13:26:56;3.75;;;1.00;;
22064;SDS011;11197;53.110;8.468;2024-03-23T13:29:22;5.00;;;0.80;;
22064;SDS011;11197;53.110;8.468;2024-03-23T13:31:49;3.38;;;0.95;;
22064;SDS011;11197;53.110;8.468;2024-03-23T13:34:16;3.30;;;0.90;;
22064;SDS011;11197;53.110;8.468;2024-03-23T13:36:43;4.40;;;0.80;;
22064;SDS011;11197;53.110;8.468;2024-03-23T13:39:09;3.65;;;0.95;;
22064;SDS011;11197;53.110;8.468;2024-03-23T13:41:38;5.38;;;1.60;;
22064;SDS011;11197;53.110;8.468;2024-03-23T13:44:08;4.32;;;1.20;;
22064;SDS011;11197;53.110;8.468;2024-03-23T13:46:38;3.80;;;1.10;;
22064;SDS011;11197;53.110;8.468;2024-03-23T13:49:05;4.75;;;0.95;;
22064;SDS011;11197;53.110;8.468;2024-03-23T13:51:31;3.95;;;0.90;;
22064;SDS011;11197;53.110;8.468;2024-03-23T13:53:57;3.40;;;0.88;;
22064;SDS011;11197;53.110;8.468;2024-03-23T13:56:26;6.30;;;1.10;;
22064;SDS011;11197;53.110;8.468;2024-03-23T13:58:54;11.45;;;1.50;;
22064;SDS011;11197;53.110;8.468;2024-03-23T14:01:23;8.68;;;1.52;;
22064;SDS011;11197;53.110;8.468;2024-03-23T14:03:49;6.80;;;1.42;;
22064;SDS011;11197;53.110;8.468;2024-03-23T14:06:15;6.88;;;1.45;;
22064;SDS011;11197;53.110;8.468;2024-03-23T14:08:41;6.68;;;1.65;;
22064;SDS011;11197;53.110;8.468;2024-03-23T14:11:08;4.88;;;1.10;;
22064;SDS011;11197;53.110;8.468;2024-03-23T14:13:34;7.28;;;1.20;;
22064;SDS011;11197;53.110;8.468;2024-03-23T14:16:00;6.22;;;1.52;;
22064;SDS011;11197;53.110;8.468;2024-03-23T14:18:26;5.50;;;1.52;;
22064;SDS011;11197;53.110;8.468;2024-03-23T14:20:55;5.60;;;1.70;;
22064;SDS011;11197;53.110;8.468;2024-03-23T14:23:24;3.60;;;1.17;;
22064;SDS011;11197;53.110;8.468;2024-03-23T14:25:58;3.92;;;0.88;;
22064;SDS011;11197;53.110;8.468;2024-03-23T14:28:24;5.03;;;1.00;;
22064;SDS011;11197;53.110;8.468;2024-03-23T14:30:50;2.97;;;1.15;;
22064;SDS011;11197;53.110;8.468;2024-03-23T14:33:17;4.28;;;0.77;;
22064;SDS011;11197;53.110;8.468;2024-03-23T14:35:43;4.30;;;1.00;;
22064;SDS011;11197;53.110;8.468;2024-03-23T14:38:18;3.38;;;0.80;;
22064;SDS011;11197;53.110;8.468;2024-03-23T14:40:45;6.72;;;1.00;;
22064;SDS011;11197;53.110;8.468;2024-03-23T14:43:11;5.10;;;1.23;;
22064;SDS011;11197;53.110;8.468;2024-03-23T14:45:37;8.60;;;1.40;;
22064;SDS011;11197;53.110;8.468;2024-03-23T14:48:03;6.55;;;1.27;;
22064;SDS011;11197;53.110;8.468;2024-03-23T14:50:33;6.15;;;1.13;;
22064;SDS011;11197;53.110;8.468;2024-03-23T14:52:59;5.40;;;1.10;;
22064;SDS011;11197;53.110;8.468;2024-03-23T14:55:25;5.78;;;1.40;;
22064;SDS011;11197;53.110;8.468;2024-03-23T14:57:51;7.45;;;1.27;;
22064;SDS011;11197;53.110;8.468;2024-03-23T15:00:17;5.40;;;1.10;;
22064;SDS011;11197;53.110;8.468;2024-03-23T15:02:43;5.35;;;0.93;;
22064;SDS011;11197;53.110;8.468;2024-03-23T15:05:10;6.72;;;0.90;;
22064;SDS011;11197;53.110;8.468;2024-03-23T15:07:36;4.43;;;0.90;;
22064;SDS011;11197;53.110;8.468;2024-03-23T15:10:05;7.40;;;1.50;;
22064;SDS011;11197;53.110;8.468;2024-03-23T15:12:33;5.32;;;1.25;;
22064;SDS011;11197;53.110;8.468;2024-03-23T15:14:59;5.38;;;1.15;;
22064;SDS011;11197;53.110;8.468;2024-03-23T15:19:15;6.22;;;1.00;;
22064;SDS011;11197;53.110;8.468;2024-03-23T15:21:42;6.70;;;1.38;;
22064;SDS011;11197;53.110;8.468;2024-03-23T15:24:08;9.63;;;1.40;;
22064;SDS011;11197;53.110;8.468;2024-03-23T15:26:37;6.47;;;1.40;;
22064;SDS011;11197;53.110;8.468;2024-03-23T15:29:03;5.68;;;1.15;;
22064;SDS011;11197;53.110;8.468;2024-03-23T15:31:36;7.78;;;1.25;;
22064;SDS011;11197;53.110;8.468;2024-03-23T15:34:02;5.68;;;1.23;;
22064;SDS011;11197;53.110;8.468;2024-03-23T15:36:29;8.20;;;1.55;;
22064;SDS011;11197;53.110;8.468;2024-03-23T15:38:54;4.93;;;1.23;;
22064;SDS011;11197;53.110;8.468;2024-03-23T15:41:20;5.88;;;1.02;;
22064;SDS011;11197;53.110;8.468;2024-03-23T15:43:48;7.15;;;1.50;;
22064;SDS011;11197;53.110;8.468;2024-03-23T15:46:14;7.85;;;1.40;;
22064;SDS011;11197;53.110;8.468;2024-03-23T15:48:40;7.65;;;1.60;;
22064;SDS011;11197;53.110;8.468;2024-03-23T15:51:11;5.35;;;1.52;;
22064;SDS011;11197;53.110;8.468;2024-03-23T15:53:37;6.88;;;1.50;;
22064;SDS011;11197;53.110;8.468;2024-03-23T15:56:03;8.73;;;1.58;;
22064;SDS011;11197;53.110;8.468;2024-03-23T15:58:30;7.68;;;1.60;;
22064;SDS011;11197;53.110;8.468;2024-03-23T16:01:00;7.40;;;1.90;;